sensor_id;sensor_type;location;lat;lon;timestamp;noise_LAeq;noise_LA_min;noise_LA_max;noise_LA01;noise_LA95
77729;Laerm;68312;53.502;10.030;2023-06-26T00:02:18;47.95;42.97;55.51;;
77729;Laerm;68312;53.502;10.030;2023-06-26T00:04:44;49.65;43.03;57.99;;
77729;Laerm;68312;53.502;10.030;2023-06-26T00:07:10;47.57;43.12;55.02;;
77729;Laerm;68312;53.502;10.030;2023-06-26T00:09:39;48.04;43.89;53.80;;
77729;Laerm;68312;53.502;10.030;2023-06-26T00:12:05;49.52;43.39;59.91;;
77729;Laerm;68312;53.502;10.030;2023-06-26T00:14:31;47.89;41.26;55.22;;
77729;Laerm;68312;53.502;10.030;2023-06-26T00:16:56;48.13;43.94;54.96;;
77729;Laerm;68312;53.502;10.030;2023-06-26T00:19:25;48.57;41.53;56.97;;
77729;Laerm;68312;53.502;10.030;2023-06-26T00:21:51;47.32;42.07;55.63;;
77729;Laerm;68312;53.502;10.030;2023-06-26T00:24:17;49.21;42.44;57.85;;
77729;Laerm;68312;53.502;10.030;2023-06-26T00:26:47;47.83;43.89;52.52;;
77729;Laerm;68312;53.502;10.030;2023-06-26T00:29:12;48.07;43.25;56.71;;
77729;Laerm;68312;53.502;10.030;2023-06-26T00:31:39;46.93;39.63;54.79;;
77729;Laerm;68312;53.502;10.030;2023-06-26T00:34:07;45.20;40.17;53.65;;
77729;Laerm;68312;53.502;10.030;2023-06-26T00:36:32;46.82;42.55;53.63;;
77729;Laerm;68312;53.502;10.030;2023-06-26T00:38:59;46.64;42.74;53.63;;
77729;Laerm;68312;53.502;10.030;2023-06-26T00:41:24;45.42;41.19;49.74;;
77729;Laerm;68312;53.502;10.030;2023-06-26T00:43:50;46.85;42.67;52.97;;
77729;Laerm;68312;53.502;10.030;2023-06-26T00:46:16;46.84;41.11;54.82;;
77729;Laerm;68312;53.502;10.030;2023-06-26T00:48:46;46.19;40.50;53.76;;
77729;Laerm;68312;53.502;10.030;2023-06-26T00:51:13;47.49;41.81;54.09;;
77729;Laerm;68312;53.502;10.030;2023-06-26T00:53:39;47.71;40.24;55.90;;
77729;Laerm;68312;53.502;10.030;2023-06-26T00:56:06;46.93;42.34;53.09;;
77729;Laerm;68312;53.502;10.030;2023-06-26T00:58:32;48.55;41.73;59.88;;
77729;Laerm;68312;53.502;10.030;2023-06-26T01:00:57;49.24;43.06;56.49;;
77729;Laerm;68312;53.502;10.030;2023-06-26T01:03:25;48.81;43.60;59.02;;
77729;Laerm;68312;53.502;10.030;2023-06-26T01:05:54;47.58;40.46;62.01;;
77729;Laerm;68312;53.502;10.030;2023-06-26T01:08:23;46.53;41.52;52.23;;
77729;Laerm;68312;53.502;10.030;2023-06-26T01:10:49;48.14;41.73;55.93;;
77729;Laerm;68312;53.502;10.030;2023-06-26T01:13:16;49.11;44.69;55.43;;
77729;Laerm;68312;53.502;10.030;2023-06-26T01:15:41;49.35;42.35;57.07;;
77729;Laerm;68312;53.502;10.030;2023-06-26T01:18:08;47.57;42.61;53.46;;
77729;Laerm;68312;53.502;10.030;2023-06-26T01:20:39;48.92;44.08;53.94;;
77729;Laerm;68312;53.502;10.030;2023-06-26T01:23:37;47.41;43.61;54.80;;
77729;Laerm;68312;53.502;10.030;2023-06-26T01:28:35;48.37;43.76;54.30;;
77729;Laerm;68312;53.502;10.030;2023-06-26T01:31:03;50.84;43.05;63.21;;
77729;Laerm;68312;53.502;10.030;2023-06-26T01:33:31;50.10;44.64;56.19;;
77729;Laerm;68312;53.502;10.030;2023-06-26T01:35:56;49.58;43.70;55.01;;
77729;Laerm;68312;53.502;10.030;2023-06-26T01:38:22;46.93;42.33;52.91;;
77729;Laerm;68312;53.502;10.030;2023-06-26T01:40:47;48.62;43.76;57.97;;
77729;Laerm;68312;53.502;10.030;2023-06-26T01:44:03;49.28;44.57;57.63;;
77729;Laerm;68312;53.502;10.030;2023-06-26T01:47:02;50.25;44.43;56.73;;
77729;Laerm;68312;53.502;10.030;2023-06-26T01:50:06;48.67;42.84;55.01;;
77729;Laerm;68312;53.502;10.030;2023-06-26T01:52:51;50.01;44.75;56.99;;
77729;Laerm;68312;53.502;10.030;2023-06-26T01:58:04;49.02;44.46;57.83;;
77729;Laerm;68312;53.502;10.030;2023-06-26T02:00:32;47.41;42.24;53.45;;
77729;Laerm;68312;53.502;10.030;2023-06-26T02:03:00;48.25;42.99;64.72;;
77729;Laerm;68312;53.502;10.030;2023-06-26T02:05:26;47.49;41.41;63.23;;
77729;Laerm;68312;53.502;10.030;2023-06-26T02:07:51;47.06;41.85;57.07;;
77729;Laerm;68312;53.502;10.030;2023-06-26T02:10:17;48.52;41.96;63.41;;
77729;Laerm;68312;53.502;10.030;2023-06-26T02:12:43;50.92;45.12;59.70;;
77729;Laerm;68312;53.502;10.030;2023-06-26T02:15:09;52.06;45.26;67.00;;
77729;Laerm;68312;53.502;10.030;2023-06-26T02:17:35;50.31;45.03;60.28;;
77729;Laerm;68312;53.502;10.030;2023-06-26T02:20:01;50.21;45.22;58.75;;
77729;Laerm;68312;53.502;10.030;2023-06-26T02:22:29;50.78;45.60;62.60;;
77729;Laerm;68312;53.502;10.030;2023-06-26T02:24:57;51.18;44.57;66.06;;
77729;Laerm;68312;53.502;10.030;2023-06-26T02:27:22;50.50;45.07;62.66;;
77729;Laerm;68312;53.502;10.030;2023-06-26T02:29:48;50.20;46.01;59.73;;
77729;Laerm;68312;53.502;10.030;2023-06-26T02:32:13;51.84;46.96;64.55;;
77729;Laerm;68312;53.502;10.030;2023-06-26T02:34:40;51.83;46.23;66.10;;
77729;Laerm;68312;53.502;10.030;2023-06-26T02:37:05;51.08;45.07;65.58;;
77729;Laerm;68312;53.502;10.030;2023-06-26T02:39:31;49.45;44.88;59.64;;
77729;Laerm;68312;53.502;10.030;2023-06-26T02:41:57;49.73;45.86;57.64;;
77729;Laerm;68312;53.502;10.030;2023-06-26T02:44:22;50.42;45.83;62.38;;
77729;Laerm;68312;53.502;10.030;2023-06-26T02:46:47;50.77;46.34;58.62;;
77729;Laerm;68312;53.502;10.030;2023-06-26T02:49:13;51.11;47.33;60.85;;
77729;Laerm;68312;53.502;10.030;2023-06-26T02:51:41;50.91;47.02;58.23;;
77729;Laerm;68312;53.502;10.030;2023-06-26T02:54:06;52.02;47.86;61.20;;
77729;Laerm;68312;53.502;10.030;2023-06-26T02:56:32;51.05;47.31;55.67;;
77729;Laerm;68312;53.502;10.030;2023-06-26T02:58:58;50.63;46.58;61.67;;
77729;Laerm;68312;53.502;10.030;2023-06-26T03:01:24;51.49;47.63;59.07;;
77729;Laerm;68312;53.502;10.030;2023-06-26T03:03:50;50.70;47.34;54.52;;
77729;Laerm;68312;53.502;10.030;2023-06-26T03:06:15;51.30;46.61;58.68;;
77729;Laerm;68312;53.502;10.030;2023-06-26T03:08:42;51.75;48.22;64.16;;
77729;Laerm;68312;53.502;10.030;2023-06-26T03:11:08;51.15;47.96;56.09;;
77729;Laerm;68312;53.502;10.030;2023-06-26T03:13:36;51.99;47.98;56.55;;
77729;Laerm;68312;53.502;10.030;2023-06-26T03:16:03;51.53;48.17;57.11;;
77729;Laerm;68312;53.502;10.030;2023-06-26T03:18:29;50.89;47.38;64.72;;
77729;Laerm;68312;53.502;10.030;2023-06-26T03:20:58;51.44;47.63;57.62;;
77729;Laerm;68312;53.502;10.030;2023-06-26T03:23:23;52.64;49.32;57.31;;
77729;Laerm;68312;53.502;10.030;2023-06-26T03:25:49;52.05;48.30;55.31;;
77729;Laerm;68312;53.502;10.030;2023-06-26T03:28:16;52.10;48.77;62.27;;
77729;Laerm;68312;53.502;10.030;2023-06-26T03:30:42;53.17;49.58;61.96;;
77729;Laerm;68312;53.502;10.030;2023-06-26T03:33:07;52.62;48.80;56.07;;
77729;Laerm;68312;53.502;10.030;2023-06-26T03:35:33;52.16;49.16;56.23;;
77729;Laerm;68312;53.502;10.030;2023-06-26T03:37:59;52.12;48.27;62.36;;
77729;Laerm;68312;53.502;10.030;2023-06-26T03:40:24;51.91;48.40;56.05;;
77729;Laerm;68312;53.502;10.030;2023-06-26T03:42:50;52.66;48.29;61.80;;
77729;Laerm;68312;53.502;10.030;2023-06-26T03:45:15;52.89;49.01;61.21;;
77729;Laerm;68312;53.502;10.030;2023-06-26T03:47:41;51.72;48.50;59.93;;
77729;Laerm;68312;53.502;10.030;2023-06-26T03:50:07;51.87;47.68;62.24;;
77729;Laerm;68312;53.502;10.030;2023-06-26T03:52:35;51.97;48.99;57.53;;
77729;Laerm;68312;53.502;10.030;2023-06-26T03:55:00;52.51;49.48;58.11;;
77729;Laerm;68312;53.502;10.030;2023-06-26T03:57:26;52.87;49.30;59.89;;
77729;Laerm;68312;53.502;10.030;2023-06-26T03:59:54;51.98;48.90;55.88;;
77729;Laerm;68312;53.502;10.030;2023-06-26T04:02:20;52.12;48.26;60.76;;
77729;Laerm;68312;53.502;10.030;2023-06-26T04:04:45;52.27;48.29;61.46;;
77729;Laerm;68312;53.502;10.030;2023-06-26T04:07:11;52.60;48.42;63.20;;
77729;Laerm;68312;53.502;10.030;2023-06-26T04:09:36;52.06;48.82;55.54;;
77729;Laerm;68312;53.502;10.030;2023-06-26T04:12:03;52.24;48.58;57.71;;
77729;Laerm;68312;53.502;10.030;2023-06-26T04:14:28;52.27;47.45;59.78;;
77729;Laerm;68312;53.502;10.030;2023-06-26T04:16:54;52.00;48.33;58.47;;
77729;Laerm;68312;53.502;10.030;2023-06-26T04:19:19;55.13;49.00;70.62;;
77729;Laerm;68312;53.502;10.030;2023-06-26T04:21:45;55.50;49.25;66.72;;
77729;Laerm;68312;53.502;10.030;2023-06-26T04:24:11;57.45;49.71;66.08;;
77729;Laerm;68312;53.502;10.030;2023-06-26T04:26:38;52.23;48.47;60.90;;
77729;Laerm;68312;53.502;10.030;2023-06-26T04:29:03;51.74;48.56;55.60;;
77729;Laerm;68312;53.502;10.030;2023-06-26T04:31:29;51.69;48.08;58.79;;
77729;Laerm;68312;53.502;10.030;2023-06-26T04:33:54;56.17;48.56;69.18;;
77729;Laerm;68312;53.502;10.030;2023-06-26T04:36:21;56.16;48.15;67.97;;
77729;Laerm;68312;53.502;10.030;2023-06-26T04:38:47;51.64;48.40;67.15;;
77729;Laerm;68312;53.502;10.030;2023-06-26T04:41:12;55.74;47.49;67.33;;
77729;Laerm;68312;53.502;10.030;2023-06-26T04:43:38;51.66;48.23;58.06;;
77729;Laerm;68312;53.502;10.030;2023-06-26T04:46:03;55.80;48.12;67.49;;
77729;Laerm;68312;53.502;10.030;2023-06-26T04:48:29;58.60;48.84;69.47;;
77729;Laerm;68312;53.502;10.030;2023-06-26T04:50:55;51.82;47.52;68.95;;
77729;Laerm;68312;53.502;10.030;2023-06-26T04:53:21;55.64;47.67;71.17;;
77729;Laerm;68312;53.502;10.030;2023-06-26T04:55:49;51.35;47.43;62.58;;
77729;Laerm;68312;53.502;10.030;2023-06-26T04:58:15;50.46;47.12;54.49;;
77729;Laerm;68312;53.502;10.030;2023-06-26T05:00:40;54.13;47.66;79.60;;
77729;Laerm;68312;53.502;10.030;2023-06-26T05:03:06;55.08;47.79;63.67;;
77729;Laerm;68312;53.502;10.030;2023-06-26T05:05:31;51.08;46.74;62.81;;
77729;Laerm;68312;53.502;10.030;2023-06-26T05:07:56;49.74;45.87;62.41;;
77729;Laerm;68312;53.502;10.030;2023-06-26T05:10:22;67.27;46.53;101.42;;
77729;Laerm;68312;53.502;10.030;2023-06-26T05:12:48;50.60;46.49;56.67;;
77729;Laerm;68312;53.502;10.030;2023-06-26T05:15:14;53.92;47.54;64.87;;
77729;Laerm;68312;53.502;10.030;2023-06-26T05:17:39;51.13;46.82;61.24;;
77729;Laerm;68312;53.502;10.030;2023-06-26T05:20:05;50.48;46.70;56.15;;
77729;Laerm;68312;53.502;10.030;2023-06-26T05:22:35;55.10;47.00;64.84;;
77729;Laerm;68312;53.502;10.030;2023-06-26T05:25:08;50.03;45.96;55.70;;
77729;Laerm;68312;53.502;10.030;2023-06-26T05:27:34;54.83;46.47;67.77;;
77729;Laerm;68312;53.502;10.030;2023-06-26T05:30:00;50.86;46.90;59.71;;
77729;Laerm;68312;53.502;10.030;2023-06-26T05:32:30;50.58;46.26;61.40;;
77729;Laerm;68312;53.502;10.030;2023-06-26T05:35:01;49.15;46.17;57.38;;
77729;Laerm;68312;53.502;10.030;2023-06-26T05:37:28;52.43;46.04;71.87;;
77729;Laerm;68312;53.502;10.030;2023-06-26T05:39:54;49.89;46.52;57.06;;
77729;Laerm;68312;53.502;10.030;2023-06-26T05:42:20;49.06;45.63;59.59;;
77729;Laerm;68312;53.502;10.030;2023-06-26T05:44:46;51.08;46.12;59.94;;
77729;Laerm;68312;53.502;10.030;2023-06-26T05:47:14;49.67;45.75;61.98;;
77729;Laerm;68312;53.502;10.030;2023-06-26T05:49:40;49.73;45.91;59.68;;
77729;Laerm;68312;53.502;10.030;2023-06-26T05:52:06;52.01;45.13;68.98;;
77729;Laerm;68312;53.502;10.030;2023-06-26T05:54:32;48.87;44.96;57.69;;
77729;Laerm;68312;53.502;10.030;2023-06-26T05:56:59;48.56;44.61;56.70;;
77729;Laerm;68312;53.502;10.030;2023-06-26T05:59:26;51.18;45.35;60.82;;
77729;Laerm;68312;53.502;10.030;2023-06-26T06:01:53;50.11;45.10;59.62;;
77729;Laerm;68312;53.502;10.030;2023-06-26T06:04:21;52.61;45.32;63.46;;
77729;Laerm;68312;53.502;10.030;2023-06-26T06:06:46;48.92;45.11;57.11;;
77729;Laerm;68312;53.502;10.030;2023-06-26T06:09:12;51.42;45.21;71.39;;
77729;Laerm;68312;53.502;10.030;2023-06-26T06:11:38;48.43;44.75;55.20;;
77729;Laerm;68312;53.502;10.030;2023-06-26T06:14:03;49.01;44.32;56.96;;
77729;Laerm;68312;53.502;10.030;2023-06-26T06:16:28;48.69;43.88;58.85;;
77729;Laerm;68312;53.502;10.030;2023-06-26T06:18:54;49.25;45.22;57.38;;
77729;Laerm;68312;53.502;10.030;2023-06-26T06:21:20;49.56;45.66;58.35;;
77729;Laerm;68312;53.502;10.030;2023-06-26T06:23:46;51.33;46.02;63.86;;
77729;Laerm;68312;53.502;10.030;2023-06-26T06:26:11;48.62;45.30;56.50;;
77729;Laerm;68312;53.502;10.030;2023-06-26T06:28:39;48.25;44.70;54.08;;
77729;Laerm;68312;53.502;10.030;2023-06-26T06:31:05;48.64;45.58;58.16;;
77729;Laerm;68312;53.502;10.030;2023-06-26T06:33:30;48.20;45.24;56.30;;
77729;Laerm;68312;53.502;10.030;2023-06-26T06:35:56;49.82;45.60;59.51;;
77729;Laerm;68312;53.502;10.030;2023-06-26T06:38:22;48.77;44.94;54.99;;
77729;Laerm;68312;53.502;10.030;2023-06-26T06:40:47;49.33;45.48;55.91;;
77729;Laerm;68312;53.502;10.030;2023-06-26T06:43:13;48.12;44.61;53.58;;
77729;Laerm;68312;53.502;10.030;2023-06-26T06:45:38;50.55;44.79;64.87;;
77729;Laerm;68312;53.502;10.030;2023-06-26T06:48:05;50.73;43.49;80.28;;
77729;Laerm;68312;53.502;10.030;2023-06-26T06:50:30;51.18;44.25;60.66;;
77729;Laerm;68312;53.502;10.030;2023-06-26T06:52:58;48.37;45.06;53.87;;
77729;Laerm;68312;53.502;10.030;2023-06-26T06:55:26;48.36;44.05;62.62;;
77729;Laerm;68312;53.502;10.030;2023-06-26T06:57:52;49.14;45.03;61.62;;
77729;Laerm;68312;53.502;10.030;2023-06-26T07:00:17;48.78;44.20;62.44;;
77729;Laerm;68312;53.502;10.030;2023-06-26T07:02:45;48.64;44.99;57.28;;
77729;Laerm;68312;53.502;10.030;2023-06-26T07:05:12;48.00;44.16;58.93;;
77729;Laerm;68312;53.502;10.030;2023-06-26T07:07:39;49.38;45.11;60.50;;
77729;Laerm;68312;53.502;10.030;2023-06-26T07:10:13;48.18;43.50;59.83;;
77729;Laerm;68312;53.502;10.030;2023-06-26T07:12:39;46.62;43.66;51.24;;
77729;Laerm;68312;53.502;10.030;2023-06-26T07:15:06;47.82;43.79;59.85;;
77729;Laerm;68312;53.502;10.030;2023-06-26T07:17:34;48.43;43.44;60.90;;
77729;Laerm;68312;53.502;10.030;2023-06-26T07:20:02;50.48;44.02;71.86;;
77729;Laerm;68312;53.502;10.030;2023-06-26T07:22:27;48.20;44.02;67.84;;
77729;Laerm;68312;53.502;10.030;2023-06-26T07:24:53;48.34;44.43;55.50;;
77729;Laerm;68312;53.502;10.030;2023-06-26T07:27:20;46.97;43.10;52.48;;
77729;Laerm;68312;53.502;10.030;2023-06-26T07:29:45;47.63;43.39;54.16;;
77729;Laerm;68312;53.502;10.030;2023-06-26T07:32:11;68.49;44.63;98.81;;
77729;Laerm;68312;53.502;10.030;2023-06-26T07:34:37;50.27;43.73;75.78;;
77729;Laerm;68312;53.502;10.030;2023-06-26T07:37:03;46.20;42.58;55.62;;
77729;Laerm;68312;53.502;10.030;2023-06-26T07:39:32;46.54;42.77;55.74;;
77729;Laerm;68312;53.502;10.030;2023-06-26T07:41:57;46.63;42.35;56.86;;
77729;Laerm;68312;53.502;10.030;2023-06-26T07:44:23;46.65;42.85;55.98;;
77729;Laerm;68312;53.502;10.030;2023-06-26T07:46:49;46.18;42.79;50.85;;
77729;Laerm;68312;53.502;10.030;2023-06-26T07:49:15;47.11;42.51;54.81;;
77729;Laerm;68312;53.502;10.030;2023-06-26T07:51:42;47.37;43.01;57.40;;
77729;Laerm;68312;53.502;10.030;2023-06-26T07:54:13;47.42;42.81;55.01;;
77729;Laerm;68312;53.502;10.030;2023-06-26T07:57:04;46.70;41.55;64.29;;
77729;Laerm;68312;53.502;10.030;2023-06-26T07:59:31;50.79;42.90;65.10;;
77729;Laerm;68312;53.502;10.030;2023-06-26T08:01:59;47.40;43.86;54.94;;
77729;Laerm;68312;53.502;10.030;2023-06-26T08:04:28;47.00;43.51;57.04;;
77729;Laerm;68312;53.502;10.030;2023-06-26T08:06:57;46.37;41.91;54.80;;
77729;Laerm;68312;53.502;10.030;2023-06-26T08:09:28;47.38;43.39;58.23;;
77729;Laerm;68312;53.502;10.030;2023-06-26T08:11:55;47.46;44.12;53.62;;
77729;Laerm;68312;53.502;10.030;2023-06-26T08:14:21;46.82;42.79;55.74;;
77729;Laerm;68312;53.502;10.030;2023-06-26T08:16:47;48.32;43.58;56.55;;
77729;Laerm;68312;53.502;10.030;2023-06-26T08:19:15;48.25;41.50;59.58;;
77729;Laerm;68312;53.502;10.030;2023-06-26T08:21:45;49.85;42.81;60.44;;
77729;Laerm;68312;53.502;10.030;2023-06-26T08:24:12;47.39;43.17;55.04;;
77729;Laerm;68312;53.502;10.030;2023-06-26T08:26:38;54.35;43.02;68.18;;
77729;Laerm;68312;53.502;10.030;2023-06-26T08:29:03;47.69;44.05;54.73;;
77729;Laerm;68312;53.502;10.030;2023-06-26T08:31:32;51.07;45.15;77.25;;
77729;Laerm;68312;53.502;10.030;2023-06-26T08:33:58;47.39;43.05;55.27;;
77729;Laerm;68312;53.502;10.030;2023-06-26T08:36:23;50.05;43.07;63.25;;
77729;Laerm;68312;53.502;10.030;2023-06-26T08:38:54;47.90;43.08;54.08;;
77729;Laerm;68312;53.502;10.030;2023-06-26T08:41:20;47.54;43.25;59.00;;
77729;Laerm;68312;53.502;10.030;2023-06-26T08:43:48;47.63;43.45;59.97;;
77729;Laerm;68312;53.502;10.030;2023-06-26T08:46:14;46.56;42.88;56.44;;
77729;Laerm;68312;53.502;10.030;2023-06-26T08:48:54;47.49;42.86;57.11;;
77729;Laerm;68312;53.502;10.030;2023-06-26T08:51:24;47.98;43.16;55.92;;
77729;Laerm;68312;53.502;10.030;2023-06-26T08:53:59;48.11;42.78;60.99;;
77729;Laerm;68312;53.502;10.030;2023-06-26T08:56:34;46.42;41.88;58.28;;
77729;Laerm;68312;53.502;10.030;2023-06-26T08:59:00;46.82;41.56;60.63;;
77729;Laerm;68312;53.502;10.030;2023-06-26T09:01:28;49.17;41.94;70.81;;
77729;Laerm;68312;53.502;10.030;2023-06-26T09:03:54;47.12;41.07;57.99;;
77729;Laerm;68312;53.502;10.030;2023-06-26T09:06:22;53.70;43.89;68.13;;
77729;Laerm;68312;53.502;10.030;2023-06-26T09:08:47;50.41;43.61;71.49;;
77729;Laerm;68312;53.502;10.030;2023-06-26T09:11:13;55.07;41.90;70.20;;
77729;Laerm;68312;53.502;10.030;2023-06-26T09:13:51;53.34;41.35;72.35;;
77729;Laerm;68312;53.502;10.030;2023-06-26T09:16:17;52.89;42.74;68.53;;
77729;Laerm;68312;53.502;10.030;2023-06-26T09:18:47;47.42;42.67;63.60;;
77729;Laerm;68312;53.502;10.030;2023-06-26T09:21:14;46.46;41.39;57.80;;
77729;Laerm;68312;53.502;10.030;2023-06-26T09:23:42;52.99;43.88;69.98;;
77729;Laerm;68312;53.502;10.030;2023-06-26T09:26:08;49.65;43.30;68.33;;
77729;Laerm;68312;53.502;10.030;2023-06-26T09:28:35;48.24;41.92;65.95;;
77729;Laerm;68312;53.502;10.030;2023-06-26T09:31:07;49.53;41.74;67.73;;
77729;Laerm;68312;53.502;10.030;2023-06-26T09:33:38;53.03;42.31;67.52;;
77729;Laerm;68312;53.502;10.030;2023-06-26T09:36:08;50.04;40.90;72.26;;
77729;Laerm;68312;53.502;10.030;2023-06-26T09:38:35;51.01;42.84;71.89;;
77729;Laerm;68312;53.502;10.030;2023-06-26T09:41:02;47.66;40.79;59.59;;
77729;Laerm;68312;53.502;10.030;2023-06-26T09:43:28;51.48;41.59;71.31;;
77729;Laerm;68312;53.502;10.030;2023-06-26T09:45:54;50.68;43.25;68.24;;
77729;Laerm;68312;53.502;10.030;2023-06-26T09:48:19;55.80;43.90;72.38;;
77729;Laerm;68312;53.502;10.030;2023-06-26T09:50:46;56.14;45.38;73.66;;
77729;Laerm;68312;53.502;10.030;2023-06-26T09:53:13;50.11;42.19;70.13;;
77729;Laerm;68312;53.502;10.030;2023-06-26T09:55:40;51.93;43.23;70.89;;
77729;Laerm;68312;53.502;10.030;2023-06-26T09:58:06;46.03;41.56;60.51;;
77729;Laerm;68312;53.502;10.030;2023-06-26T10:00:33;59.60;43.11;78.27;;
77729;Laerm;68312;53.502;10.030;2023-06-26T10:03:01;54.89;45.47;72.47;;
77729;Laerm;68312;53.502;10.030;2023-06-26T10:05:29;48.02;43.45;60.08;;
77729;Laerm;68312;53.502;10.030;2023-06-26T10:07:55;50.62;42.82;73.28;;
77729;Laerm;68312;53.502;10.030;2023-06-26T10:10:23;53.23;42.46;64.65;;
77729;Laerm;68312;53.502;10.030;2023-06-26T10:13:01;62.05;55.46;71.61;;
77729;Laerm;68312;53.502;10.030;2023-06-26T10:15:30;57.64;46.69;87.11;;
77729;Laerm;68312;53.502;10.030;2023-06-26T10:18:01;50.09;44.17;71.84;;
77729;Laerm;68312;53.502;10.030;2023-06-26T10:20:27;54.04;44.80;74.89;;
77729;Laerm;68312;53.502;10.030;2023-06-26T10:22:57;57.44;47.91;74.24;;
77729;Laerm;68312;53.502;10.030;2023-06-26T10:25:29;64.32;56.28;95.72;;
77729;Laerm;68312;53.502;10.030;2023-06-26T10:28:01;66.11;51.85;101.48;;
77729;Laerm;68312;53.502;10.030;2023-06-26T10:30:34;59.76;52.17;85.88;;
77729;Laerm;68312;53.502;10.030;2023-06-26T10:33:02;61.10;56.61;73.01;;
77729;Laerm;68312;53.502;10.030;2023-06-26T10:35:30;56.49;46.02;67.10;;
77729;Laerm;68312;53.502;10.030;2023-06-26T10:38:03;56.15;48.82;65.55;;
77729;Laerm;68312;53.502;10.030;2023-06-26T10:40:44;54.15;48.64;62.90;;
77729;Laerm;68312;53.502;10.030;2023-06-26T10:43:15;49.78;44.30;60.85;;
77729;Laerm;68312;53.502;10.030;2023-06-26T10:45:48;52.49;43.31;68.10;;
77729;Laerm;68312;53.502;10.030;2023-06-26T10:48:15;49.48;43.11;60.05;;
77729;Laerm;68312;53.502;10.030;2023-06-26T10:50:40;47.95;42.76;61.12;;
77729;Laerm;68312;53.502;10.030;2023-06-26T10:56:05;44.74;41.78;51.11;;
77729;Laerm;68312;53.502;10.030;2023-06-26T10:58:42;44.47;40.32;55.20;;
77729;Laerm;68312;53.502;10.030;2023-06-26T11:06:33;48.85;40.51;63.87;;
77729;Laerm;68312;53.502;10.030;2023-06-26T11:14:22;49.10;40.92;66.95;;
77729;Laerm;68312;53.502;10.030;2023-06-26T11:16:48;45.26;40.10;55.51;;
77729;Laerm;68312;53.502;10.030;2023-06-26T11:19:17;47.17;40.48;58.92;;
77729;Laerm;68312;53.502;10.030;2023-06-26T11:21:45;45.84;41.34;58.30;;
77729;Laerm;68312;53.502;10.030;2023-06-26T11:24:13;49.84;42.20;75.14;;
77729;Laerm;68312;53.502;10.030;2023-06-26T11:26:41;49.71;42.82;68.82;;
77729;Laerm;68312;53.502;10.030;2023-06-26T11:29:08;52.82;45.92;67.69;;
77729;Laerm;68312;53.502;10.030;2023-06-26T11:31:38;47.26;42.87;59.64;;
77729;Laerm;68312;53.502;10.030;2023-06-26T11:34:12;48.98;44.50;59.49;;
77729;Laerm;68312;53.502;10.030;2023-06-26T11:36:39;47.97;43.45;55.50;;
77729;Laerm;68312;53.502;10.030;2023-06-26T11:39:06;46.39;41.72;56.94;;
77729;Laerm;68312;53.502;10.030;2023-06-26T11:41:35;49.77;43.66;61.63;;
77729;Laerm;68312;53.502;10.030;2023-06-26T11:44:03;49.79;43.80;61.37;;
77729;Laerm;68312;53.502;10.030;2023-06-26T11:46:31;49.44;43.27;63.04;;
77729;Laerm;68312;53.502;10.030;2023-06-26T11:48:58;50.43;43.16;66.32;;
77729;Laerm;68312;53.502;10.030;2023-06-26T11:51:27;54.02;44.36;73.03;;
77729;Laerm;68312;53.502;10.030;2023-06-26T11:53:55;49.09;43.61;64.99;;
77729;Laerm;68312;53.502;10.030;2023-06-26T11:56:20;49.32;44.55;61.98;;
77729;Laerm;68312;53.502;10.030;2023-06-26T11:59:10;51.28;42.67;72.77;;
77729;Laerm;68312;53.502;10.030;2023-06-26T12:01:43;49.03;44.19;61.91;;
77729;Laerm;68312;53.502;10.030;2023-06-26T12:04:14;48.58;43.00;60.28;;
77729;Laerm;68312;53.502;10.030;2023-06-26T12:06:47;49.01;43.77;63.09;;
77729;Laerm;68312;53.502;10.030;2023-06-26T12:09:14;49.22;42.94;67.49;;
77729;Laerm;68312;53.502;10.030;2023-06-26T12:11:45;48.25;42.26;60.32;;
77729;Laerm;68312;53.502;10.030;2023-06-26T12:14:12;48.12;43.13;59.51;;
77729;Laerm;68312;53.502;10.030;2023-06-26T12:16:37;47.46;41.27;66.15;;
77729;Laerm;68312;53.502;10.030;2023-06-26T12:19:06;46.98;41.99;64.13;;
77729;Laerm;68312;53.502;10.030;2023-06-26T12:24:10;48.48;43.32;62.14;;
77729;Laerm;68312;53.502;10.030;2023-06-26T12:26:37;46.50;42.62;57.24;;
77729;Laerm;68312;53.502;10.030;2023-06-26T12:29:09;50.76;43.08;67.94;;
77729;Laerm;68312;53.502;10.030;2023-06-26T12:31:35;52.59;42.21;75.96;;
77729;Laerm;68312;53.502;10.030;2023-06-26T12:34:01;58.38;44.28;82.04;;
77729;Laerm;68312;53.502;10.030;2023-06-26T12:36:39;51.35;45.38;66.30;;
77729;Laerm;68312;53.502;10.030;2023-06-26T12:39:05;51.88;45.12;64.31;;
77729;Laerm;68312;53.502;10.030;2023-06-26T12:41:34;50.19;43.85;69.25;;
77729;Laerm;68312;53.502;10.030;2023-06-26T12:44:00;54.30;45.71;66.41;;
77729;Laerm;68312;53.502;10.030;2023-06-26T12:46:38;52.25;45.07;66.94;;
77729;Laerm;68312;53.502;10.030;2023-06-26T12:49:03;52.66;45.58;67.00;;
77729;Laerm;68312;53.502;10.030;2023-06-26T12:51:33;49.78;43.54;64.45;;
77729;Laerm;68312;53.502;10.030;2023-06-26T12:53:58;66.52;44.88;94.11;;
77729;Laerm;68312;53.502;10.030;2023-06-26T12:56:26;56.44;44.61;79.50;;
77729;Laerm;68312;53.502;10.030;2023-06-26T12:58:52;59.65;48.84;75.89;;
77729;Laerm;68312;53.502;10.030;2023-06-26T13:01:17;58.57;45.55;81.02;;
77729;Laerm;68312;53.502;10.030;2023-06-26T13:03:45;54.97;43.80;71.99;;
77729;Laerm;68312;53.502;10.030;2023-06-26T13:06:10;52.14;45.09;65.67;;
77729;Laerm;68312;53.502;10.030;2023-06-26T13:08:38;58.13;44.66;77.37;;
77729;Laerm;68312;53.502;10.030;2023-06-26T13:11:04;49.37;43.16;59.86;;
77729;Laerm;68312;53.502;10.030;2023-06-26T13:13:29;51.44;43.88;65.22;;
77729;Laerm;68312;53.502;10.030;2023-06-26T13:15:55;51.65;44.29;71.08;;
77729;Laerm;68312;53.502;10.030;2023-06-26T13:18:20;55.36;44.07;72.04;;
77729;Laerm;68312;53.502;10.030;2023-06-26T13:20:46;53.09;45.50;69.23;;
77729;Laerm;68312;53.502;10.030;2023-06-26T13:23:11;49.19;43.52;67.78;;
77729;Laerm;68312;53.502;10.030;2023-06-26T13:25:37;48.80;42.82;64.54;;
77729;Laerm;68312;53.502;10.030;2023-06-26T13:28:05;50.92;42.52;67.69;;
77729;Laerm;68312;53.502;10.030;2023-06-26T13:30:30;55.03;44.31;71.22;;
77729;Laerm;68312;53.502;10.030;2023-06-26T13:32:58;52.70;44.60;70.28;;
77729;Laerm;68312;53.502;10.030;2023-06-26T13:35:26;55.21;44.20;70.87;;
77729;Laerm;68312;53.502;10.030;2023-06-26T13:37:51;49.02;42.15;68.35;;
77729;Laerm;68312;53.502;10.030;2023-06-26T13:40:17;50.00;43.21;68.00;;
77729;Laerm;68312;53.502;10.030;2023-06-26T13:42:42;53.23;45.59;69.12;;
77729;Laerm;68312;53.502;10.030;2023-06-26T13:45:08;54.19;45.08;66.15;;
77729;Laerm;68312;53.502;10.030;2023-06-26T13:47:34;53.28;45.89;71.08;;
77729;Laerm;68312;53.502;10.030;2023-06-26T13:49:59;54.94;44.38;76.29;;
77729;Laerm;68312;53.502;10.030;2023-06-26T13:52:25;55.14;43.08;73.83;;
77729;Laerm;68312;53.502;10.030;2023-06-26T13:54:50;50.49;42.95;64.54;;
77729;Laerm;68312;53.502;10.030;2023-06-26T13:57:16;54.29;45.28;74.19;;